Royal, IA

11:57 AM CDT on September 22, 2014 (GMT -0500)
Spencer Municipal | Change Station
CLOSE
Current Station
Airport
Location: Spencer,
Elevation: 1339 ft
Nearby Weather Stations

Elev 1339 ft 43.17 °N, 95.20 °W | Updated 1 hour ago

Clear
Clear
65 °F
Feels Like 65 °F
N
7
Wind Variable Wind from WSW

Today
High -- | Low -- °F
--% Chance of Precip.
Yesterday
High -- | Low -- °F
Precip. -- in
7:08 AM 7:18 PM
Waning Crescent, 2% visible
Pressure 30.30 in
Visibility 10.0 miles
Clouds Clear
Dew Point 50 °F
Humidity 58%
Rainfall 0.00 in
Snow Depth Not available.
UV 4 out of 12
Pollen 5.00 out of 12
Air Quality Not available.
Flu Activity Not available.
METAR KSPW 221553Z AUTO 25006KT 10SM CLR 18/10 A3030 RMK AO2 SLP261 T01830100

More Conditions Fewer Conditions

Pressure 30.30 in
Visibility 10.0 miles
Clouds Clear
Dew Point 50 °F
Humidity 58%
Rainfall 0.00 in
Snow Depth Not available.
UV 4 out of 12
Pollen 5.00 out of 12
Air Quality Not available.
Flu Activity Not available.
METAR KSPW 221553Z AUTO 25006KT 10SM CLR 18/10 A3030 RMK AO2 SLP261 T01830100

More Conditions Fewer Conditions

10-Day Weather Forecast

Almanac

Astronomy

Sep. 22, 2014 Rise Set
Actual Time 7:08 AM CDT 7:18 PM CDT
Civil Twilight 6:39 AM CDT 7:46 PM CDT
Nautical Twilight 6:06 AM CDT 8:19 PM CDT
Astronomical Twilight 5:32 AM CDT 8:53 PM CDT
Moon 5:36 AM CDT 6:27 PM CDT
Length of Visible Light 13h 06m
Length of Day
12h 09m
Tomorrow will be 2m 55s shorter.
Waning Crescent, 2% of the Moon is Illuminated
Today
Waning Crescent
Sep 24
New
Oct 1
First Quarter
Oct 8
Full
Oct 15
Last Quarter

Today's Extremes

State Highs State Lows

Community

WunderPhotos

Upload Photos

1,755,480 photos uploaded!

WunderBlogs® & News

Nearby

Snow Depth

Station Depth Elevation
No new snow has been reported.

Earthquake Activity

City Distance Mag. Time & Date
No recent earthquake activity has been reported nearby.
Minimum magnitude displayed is 2.5.

Coastal Water Temperatures

Place Temperature
No Stations Reporting

Nearby Weather Stations